sensor_id;sensor_type;location;lat;lon;timestamp;pressure;altitude;pressure_sealevel;temperature;humidity
21828;BME280;11076;47.942;11.804;2023-03-16T00:00:22;94685.38;;;0.95;100.00
21828;BME280;11076;47.942;11.804;2023-03-16T00:05:25;94669.22;;;1.08;100.00
21828;BME280;11076;47.942;11.804;2023-03-16T00:10:27;94674.47;;;1.08;100.00
21828;BME280;11076;47.942;11.804;2023-03-16T00:15:30;94665.00;;;1.15;100.00
21828;BME280;11076;47.942;11.804;2023-03-16T00:20:32;94664.00;;;1.16;100.00
21828;BME280;11076;47.942;11.804;2023-03-16T00:25:35;94666.09;;;1.13;100.00
21828;BME280;11076;47.942;11.804;2023-03-16T00:30:37;94662.94;;;1.09;100.00
21828;BME280;11076;47.942;11.804;2023-03-16T00:35:39;94658.91;;;0.97;100.00
21828;BME280;11076;47.942;11.804;2023-03-16T00:40:51;94657.22;;;0.88;100.00
21828;BME280;11076;47.942;11.804;2023-03-16T00:46:01;94656.16;;;0.81;100.00
21828;BME280;11076;47.942;11.804;2023-03-16T00:51:10;94652.31;;;0.75;100.00
21828;BME280;11076;47.942;11.804;2023-03-16T00:56:14;94647.97;;;0.84;100.00
21828;BME280;11076;47.942;11.804;2023-03-16T01:01:18;94656.22;;;0.89;100.00
21828;BME280;11076;47.942;11.804;2023-03-16T01:06:22;94659.53;;;0.91;100.00
21828;BME280;11076;47.942;11.804;2023-03-16T01:11:24;94647.84;;;0.93;100.00
21828;BME280;11076;47.942;11.804;2023-03-16T01:16:27;94660.06;;;0.94;100.00
21828;BME280;11076;47.942;11.804;2023-03-16T01:21:29;94655.75;;;0.93;100.00
21828;BME280;11076;47.942;11.804;2023-03-16T01:26:34;94654.81;;;0.76;100.00
21828;BME280;11076;47.942;11.804;2023-03-16T01:31:37;94652.66;;;0.72;100.00
21828;BME280;11076;47.942;11.804;2023-03-16T01:36:42;94645.94;;;0.59;100.00
21828;BME280;11076;47.942;11.804;2023-03-16T01:41:46;94636.34;;;0.50;100.00
21828;BME280;11076;47.942;11.804;2023-03-16T01:46:49;94644.59;;;0.37;100.00
21828;BME280;11076;47.942;11.804;2023-03-16T01:52:02;94633.41;;;0.17;100.00
21828;BME280;11076;47.942;11.804;2023-03-16T01:57:10;94625.56;;;0.08;100.00
21828;BME280;11076;47.942;11.804;2023-03-16T02:02:18;94618.22;;;0.11;100.00
21828;BME280;11076;47.942;11.804;2023-03-16T02:07:23;94621.25;;;0.16;100.00
21828;BME280;11076;47.942;11.804;2023-03-16T02:12:27;94620.56;;;0.14;100.00
21828;BME280;11076;47.942;11.804;2023-03-16T02:17:33;94616.03;;;0.07;100.00
21828;BME280;11076;47.942;11.804;2023-03-16T02:22:44;94618.81;;;0.05;100.00
21828;BME280;11076;47.942;11.804;2023-03-16T02:33:15;94617.25;;;-0.06;100.00
21828;BME280;11076;47.942;11.804;2023-03-16T02:38:19;94631.47;;;-0.08;100.00
21828;BME280;11076;47.942;11.804;2023-03-16T02:43:32;94620.97;;;-0.08;100.00
21828;BME280;11076;47.942;11.804;2023-03-16T02:49:02;94623.97;;;-0.21;100.00
21828;BME280;11076;47.942;11.804;2023-03-16T02:54:07;94628.44;;;-0.31;100.00
21828;BME280;11076;47.942;11.804;2023-03-16T02:59:10;94616.91;;;-0.48;100.00
21828;BME280;11076;47.942;11.804;2023-03-16T03:04:13;94634.59;;;-0.50;100.00
21828;BME280;11076;47.942;11.804;2023-03-16T03:09:17;94634.69;;;-0.70;100.00
21828;BME280;11076;47.942;11.804;2023-03-16T03:14:21;94632.38;;;-0.83;100.00
21828;BME280;11076;47.942;11.804;2023-03-16T03:19:24;94626.22;;;-0.91;100.00
21828;BME280;11076;47.942;11.804;2023-03-16T03:24:27;94621.75;;;-0.81;100.00
21828;BME280;11076;47.942;11.804;2023-03-16T03:29:29;94616.19;;;-0.78;100.00
21828;BME280;11076;47.942;11.804;2023-03-16T03:34:36;94628.41;;;-0.96;100.00
21828;BME280;11076;47.942;11.804;2023-03-16T03:39:39;94625.00;;;-1.07;100.00
21828;BME280;11076;47.942;11.804;2023-03-16T03:44:42;94627.47;;;-0.95;100.00
21828;BME280;11076;47.942;11.804;2023-03-16T03:49:45;94628.16;;;-0.93;100.00
21828;BME280;11076;47.942;11.804;2023-03-16T03:54:47;94628.16;;;-0.93;100.00
21828;BME280;11076;47.942;11.804;2023-03-16T03:59:51;94628.00;;;-1.02;100.00
21828;BME280;11076;47.942;11.804;2023-03-16T04:04:54;94626.81;;;-1.17;100.00
21828;BME280;11076;47.942;11.804;2023-03-16T04:09:56;94616.03;;;-1.14;100.00
21828;BME280;11076;47.942;11.804;2023-03-16T04:15:14;94613.38;;;-1.04;100.00
21828;BME280;11076;47.942;11.804;2023-03-16T04:20:29;94610.22;;;-1.08;100.00
21828;BME280;11076;47.942;11.804;2023-03-16T04:25:32;94614.06;;;-1.02;100.00
21828;BME280;11076;47.942;11.804;2023-03-16T04:30:36;94617.41;;;-1.10;100.00
21828;BME280;11076;47.942;11.804;2023-03-16T04:35:53;94618.53;;;-1.32;100.00
21828;BME280;11076;47.942;11.804;2023-03-16T04:40:57;94613.19;;;-1.50;100.00
21828;BME280;11076;47.942;11.804;2023-03-16T04:46:05;94620.53;;;-1.63;100.00
21828;BME280;11076;47.942;11.804;2023-03-16T04:51:09;94623.84;;;-1.81;100.00
21828;BME280;11076;47.942;11.804;2023-03-16T04:56:16;94623.00;;;-1.91;100.00
21828;BME280;11076;47.942;11.804;2023-03-16T05:01:28;94619.97;;;-1.96;100.00
21828;BME280;11076;47.942;11.804;2023-03-16T05:06:34;94615.84;;;-1.89;100.00
21828;BME280;11076;47.942;11.804;2023-03-16T05:11:37;94605.34;;;-1.89;100.00
21828;BME280;11076;47.942;11.804;2023-03-16T05:16:43;94614.16;;;-1.90;100.00
21828;BME280;11076;47.942;11.804;2023-03-16T05:21:45;94597.88;;;-1.64;100.00
21828;BME280;11076;47.942;11.804;2023-03-16T05:26:48;94597.44;;;-1.50;100.00
21828;BME280;11076;47.942;11.804;2023-03-16T05:31:53;94599.13;;;-1.39;100.00
21828;BME280;11076;47.942;11.804;2023-03-16T05:36:59;94600.75;;;-1.28;100.00
21828;BME280;11076;47.942;11.804;2023-03-16T05:42:02;94595.59;;;-1.20;100.00
21828;BME280;11076;47.942;11.804;2023-03-16T05:47:15;94596.25;;;-0.98;100.00
21828;BME280;11076;47.942;11.804;2023-03-16T05:52:22;94592.56;;;-0.78;100.00
21828;BME280;11076;47.942;11.804;2023-03-16T05:57:28;94597.06;;;-0.61;100.00
21828;BME280;11076;47.942;11.804;2023-03-16T06:02:32;94583.75;;;-0.49;100.00
21828;BME280;11076;47.942;11.804;2023-03-16T06:07:35;94587.41;;;-0.42;100.00
21828;BME280;11076;47.942;11.804;2023-03-16T06:12:38;94591.81;;;-0.33;100.00
21828;BME280;11076;47.942;11.804;2023-03-16T06:17:41;94589.66;;;-0.19;100.00
21828;BME280;11076;47.942;11.804;2023-03-16T06:22:43;94599.66;;;-0.05;100.00
21828;BME280;11076;47.942;11.804;2023-03-16T06:27:46;94589.22;;;0.03;100.00
21828;BME280;11076;47.942;11.804;2023-03-16T06:32:51;94589.28;;;0.11;100.00
21828;BME280;11076;47.942;11.804;2023-03-16T06:37:54;94592.16;;;0.18;100.00
21828;BME280;11076;47.942;11.804;2023-03-16T06:43:15;94600.13;;;0.26;100.00
21828;BME280;11076;47.942;11.804;2023-03-16T06:48:19;94601.31;;;0.32;100.00
21828;BME280;11076;47.942;11.804;2023-03-16T06:53:22;94602.81;;;0.34;100.00
21828;BME280;11076;47.942;11.804;2023-03-16T06:58:25;94607.34;;;0.42;100.00
21828;BME280;11076;47.942;11.804;2023-03-16T07:03:28;94595.22;;;0.49;100.00
21828;BME280;11076;47.942;11.804;2023-03-16T07:08:36;94599.69;;;0.75;100.00
21828;BME280;11076;47.942;11.804;2023-03-16T07:13:40;94601.66;;;0.99;100.00
21828;BME280;11076;47.942;11.804;2023-03-16T07:18:42;94593.91;;;0.97;100.00
21828;BME280;11076;47.942;11.804;2023-03-16T07:23:49;94593.09;;;0.97;100.00
21828;BME280;11076;47.942;11.804;2023-03-16T07:28:59;94598.56;;;1.04;100.00
21828;BME280;11076;47.942;11.804;2023-03-16T07:34:03;94602.06;;;1.12;100.00
21828;BME280;11076;47.942;11.804;2023-03-16T07:39:12;94584.16;;;1.50;100.00
21828;BME280;11076;47.942;11.804;2023-03-16T07:44:16;94587.75;;;1.92;100.00
21828;BME280;11076;47.942;11.804;2023-03-16T07:49:22;94587.88;;;1.82;100.00
21828;BME280;11076;47.942;11.804;2023-03-16T07:54:27;94592.81;;;1.77;100.00
21828;BME280;11076;47.942;11.804;2023-03-16T07:59:29;94613.75;;;1.78;100.00
21828;BME280;11076;47.942;11.804;2023-03-16T08:04:33;94611.59;;;1.74;100.00
21828;BME280;11076;47.942;11.804;2023-03-16T08:09:38;94612.28;;;1.84;100.00
21828;BME280;11076;47.942;11.804;2023-03-16T08:14:43;94619.69;;;1.81;100.00
21828;BME280;11076;47.942;11.804;2023-03-16T08:19:53;94630.97;;;1.99;100.00
21828;BME280;11076;47.942;11.804;2023-03-16T08:24:57;94630.81;;;2.09;100.00
21828;BME280;11076;47.942;11.804;2023-03-16T08:30:00;94618.50;;;2.42;100.00
21828;BME280;11076;47.942;11.804;2023-03-16T08:35:11;94626.44;;;2.42;98.31
21828;BME280;11076;47.942;11.804;2023-03-16T08:40:19;94629.44;;;2.55;97.57
21828;BME280;11076;47.942;11.804;2023-03-16T08:45:24;94630.75;;;2.84;96.27
21828;BME280;11076;47.942;11.804;2023-03-16T08:50:28;94631.56;;;3.17;97.49
21828;BME280;11076;47.942;11.804;2023-03-16T08:55:30;94626.38;;;3.49;95.86
21828;BME280;11076;47.942;11.804;2023-03-16T09:00:33;94612.47;;;3.55;96.44
21828;BME280;11076;47.942;11.804;2023-03-16T09:05:36;94616.00;;;3.87;91.54
21828;BME280;11076;47.942;11.804;2023-03-16T09:10:39;94610.84;;;4.25;87.43
21828;BME280;11076;47.942;11.804;2023-03-16T09:15:41;94612.09;;;4.06;88.56
21828;BME280;11076;47.942;11.804;2023-03-16T09:20:44;94617.69;;;4.11;89.70
21828;BME280;11076;47.942;11.804;2023-03-16T09:25:48;94615.88;;;4.43;89.93
21828;BME280;11076;47.942;11.804;2023-03-16T09:30:55;94614.47;;;4.24;88.27
21828;BME280;11076;47.942;11.804;2023-03-16T09:35:58;94619.38;;;4.35;88.85
21828;BME280;11076;47.942;11.804;2023-03-16T09:41:06;94616.72;;;4.35;90.22
21828;BME280;11076;47.942;11.804;2023-03-16T09:46:24;94623.75;;;4.28;89.74
21828;BME280;11076;47.942;11.804;2023-03-16T09:51:37;94630.66;;;4.29;88.05
21828;BME280;11076;47.942;11.804;2023-03-16T09:56:44;94627.69;;;4.55;86.69
21828;BME280;11076;47.942;11.804;2023-03-16T10:13:26;94607.22;;;6.65;79.93
21828;BME280;11076;47.942;11.804;2023-03-16T10:18:40;94610.47;;;5.94;78.82
21828;BME280;11076;47.942;11.804;2023-03-16T10:23:46;94616.50;;;5.29;80.64
21828;BME280;11076;47.942;11.804;2023-03-16T10:28:50;94608.47;;;5.82;80.56
21828;BME280;11076;47.942;11.804;2023-03-16T10:34:00;94606.19;;;6.08;78.95
21828;BME280;11076;47.942;11.804;2023-03-16T10:39:10;94606.09;;;5.42;80.75
21828;BME280;11076;47.942;11.804;2023-03-16T10:44:15;94598.84;;;5.21;84.03
21828;BME280;11076;47.942;11.804;2023-03-16T10:54:29;94584.19;;;6.14;83.23
21828;BME280;11076;47.942;11.804;2023-03-16T10:59:34;94581.78;;;5.83;81.00
21828;BME280;11076;47.942;11.804;2023-03-16T11:04:38;94564.38;;;6.32;80.95
21828;BME280;11076;47.942;11.804;2023-03-16T11:09:40;94558.59;;;6.43;80.53
21828;BME280;11076;47.942;11.804;2023-03-16T11:14:43;94552.44;;;6.21;80.23
21828;BME280;11076;47.942;11.804;2023-03-16T11:19:55;94548.22;;;6.27;81.29
21828;BME280;11076;47.942;11.804;2023-03-16T11:30:07;94543.41;;;6.01;80.62
21828;BME280;11076;47.942;11.804;2023-03-16T11:35:27;94531.09;;;6.14;78.48
21828;BME280;11076;47.942;11.804;2023-03-16T11:41:10;94524.28;;;6.05;78.56
21828;BME280;11076;47.942;11.804;2023-03-16T11:46:25;94511.78;;;6.42;78.34
21828;BME280;11076;47.942;11.804;2023-03-16T11:51:58;94514.31;;;6.50;74.91
21828;BME280;11076;47.942;11.804;2023-03-16T12:13:14;94483.47;;;6.77;70.81
21828;BME280;11076;47.942;11.804;2023-03-16T12:23:38;94464.03;;;7.05;69.12
21828;BME280;11076;47.942;11.804;2023-03-16T12:28:43;94467.28;;;7.01;67.71
21828;BME280;11076;47.942;11.804;2023-03-16T12:34:15;94450.16;;;7.10;70.34
21828;BME280;11076;47.942;11.804;2023-03-16T12:44:47;94449.84;;;7.26;67.90
21828;BME280;11076;47.942;11.804;2023-03-16T12:49:50;94452.88;;;7.58;65.97
21828;BME280;11076;47.942;11.804;2023-03-16T12:55:06;94442.16;;;7.45;64.43
21828;BME280;11076;47.942;11.804;2023-03-16T13:00:10;94444.03;;;7.51;65.59
21828;BME280;11076;47.942;11.804;2023-03-16T13:05:16;94436.44;;;7.48;62.51
21828;BME280;11076;47.942;11.804;2023-03-16T13:10:19;94430.41;;;7.74;64.17
21828;BME280;11076;47.942;11.804;2023-03-16T13:15:27;94432.91;;;7.89;61.70
21828;BME280;11076;47.942;11.804;2023-03-16T13:20:32;94423.72;;;7.98;63.22
21828;BME280;11076;47.942;11.804;2023-03-16T13:25:41;94423.75;;;8.18;59.94
21828;BME280;11076;47.942;11.804;2023-03-16T13:30:48;94420.22;;;7.97;59.01
21828;BME280;11076;47.942;11.804;2023-03-16T13:35:52;94415.34;;;8.14;60.06
21828;BME280;11076;47.942;11.804;2023-03-16T13:41:09;94403.91;;;8.47;61.56
21828;BME280;11076;47.942;11.804;2023-03-16T13:46:14;94405.53;;;8.68;62.68
21828;BME280;11076;47.942;11.804;2023-03-16T13:51:18;94412.50;;;8.43;59.43
21828;BME280;11076;47.942;11.804;2023-03-16T13:56:23;94417.44;;;8.52;59.34
21828;BME280;11076;47.942;11.804;2023-03-16T14:01:29;94413.75;;;8.47;57.91
21828;BME280;11076;47.942;11.804;2023-03-16T14:06:33;94404.91;;;8.53;59.45
21828;BME280;11076;47.942;11.804;2023-03-16T14:11:37;94401.03;;;8.55;58.75
21828;BME280;11076;47.942;11.804;2023-03-16T14:16:40;94395.50;;;8.50;60.04
21828;BME280;11076;47.942;11.804;2023-03-16T14:21:44;94386.91;;;8.62;58.74
21828;BME280;11076;47.942;11.804;2023-03-16T14:26:47;94382.97;;;8.71;59.59
21828;BME280;11076;47.942;11.804;2023-03-16T14:31:50;94383.81;;;8.65;58.78
21828;BME280;11076;47.942;11.804;2023-03-16T14:36:52;94389.94;;;8.65;56.88
21828;BME280;11076;47.942;11.804;2023-03-16T14:41:54;94395.09;;;8.73;58.85
21828;BME280;11076;47.942;11.804;2023-03-16T14:46:57;94386.25;;;8.73;56.98
21828;BME280;11076;47.942;11.804;2023-03-16T14:52:04;94387.25;;;8.85;58.64
21828;BME280;11076;47.942;11.804;2023-03-16T14:57:15;94389.13;;;8.65;56.12
21828;BME280;11076;47.942;11.804;2023-03-16T15:02:25;94380.94;;;8.60;57.56
21828;BME280;11076;47.942;11.804;2023-03-16T15:07:30;94372.53;;;8.63;57.44
21828;BME280;11076;47.942;11.804;2023-03-16T15:12:33;94372.09;;;8.72;58.24
21828;BME280;11076;47.942;11.804;2023-03-16T15:17:36;94371.91;;;8.74;57.52
21828;BME280;11076;47.942;11.804;2023-03-16T15:22:40;94377.66;;;8.64;58.32
21828;BME280;11076;47.942;11.804;2023-03-16T15:27:43;94368.44;;;8.60;58.53
21828;BME280;11076;47.942;11.804;2023-03-16T15:32:46;94375.19;;;8.49;57.41
21828;BME280;11076;47.942;11.804;2023-03-16T15:37:48;94374.75;;;8.39;58.26
21828;BME280;11076;47.942;11.804;2023-03-16T15:42:51;94373.94;;;8.25;58.58
21828;BME280;11076;47.942;11.804;2023-03-16T15:47:54;94367.78;;;8.11;59.67
21828;BME280;11076;47.942;11.804;2023-03-16T15:53:01;94368.22;;;8.08;58.85
21828;BME280;11076;47.942;11.804;2023-03-16T15:58:12;94361.25;;;8.01;59.15
21828;BME280;11076;47.942;11.804;2023-03-16T16:03:17;94349.75;;;7.93;59.83
21828;BME280;11076;47.942;11.804;2023-03-16T16:08:19;94347.28;;;7.79;59.60
21828;BME280;11076;47.942;11.804;2023-03-16T16:13:25;94339.84;;;7.54;60.74
21828;BME280;11076;47.942;11.804;2023-03-16T16:18:38;94339.38;;;7.24;62.37
21828;BME280;11076;47.942;11.804;2023-03-16T16:23:41;94333.34;;;6.95;63.17
21828;BME280;11076;47.942;11.804;2023-03-16T16:28:44;94335.31;;;6.86;63.29
21828;BME280;11076;47.942;11.804;2023-03-16T16:33:48;94323.63;;;6.74;63.52
21828;BME280;11076;47.942;11.804;2023-03-16T16:38:51;94328.09;;;6.67;63.76
21828;BME280;11076;47.942;11.804;2023-03-16T16:43:56;94331.25;;;6.49;64.72
21828;BME280;11076;47.942;11.804;2023-03-16T16:49:18;94338.94;;;6.37;65.60
21828;BME280;11076;47.942;11.804;2023-03-16T16:54:23;94345.28;;;6.14;66.66
21828;BME280;11076;47.942;11.804;2023-03-16T16:59:32;94349.47;;;5.81;67.72
21828;BME280;11076;47.942;11.804;2023-03-16T17:04:35;94349.22;;;5.54;70.02
21828;BME280;11076;47.942;11.804;2023-03-16T17:09:37;94352.25;;;5.29;69.92
21828;BME280;11076;47.942;11.804;2023-03-16T17:14:40;94353.56;;;5.04;71.31
21828;BME280;11076;47.942;11.804;2023-03-16T17:19:44;94352.75;;;4.88;72.80
21828;BME280;11076;47.942;11.804;2023-03-16T17:24:47;94353.94;;;4.41;75.01
21828;BME280;11076;47.942;11.804;2023-03-16T17:29:50;94357.88;;;4.30;75.12
21828;BME280;11076;47.942;11.804;2023-03-16T17:34:53;94358.22;;;4.12;76.70
21828;BME280;11076;47.942;11.804;2023-03-16T17:39:55;94372.41;;;3.96;77.98
21828;BME280;11076;47.942;11.804;2023-03-16T17:44:58;94373.66;;;3.86;78.26
21828;BME280;11076;47.942;11.804;2023-03-16T17:50:01;94374.97;;;3.67;79.47
21828;BME280;11076;47.942;11.804;2023-03-16T17:55:03;94368.88;;;3.58;80.68
21828;BME280;11076;47.942;11.804;2023-03-16T18:00:18;94362.69;;;3.51;80.83
21828;BME280;11076;47.942;11.804;2023-03-16T18:10:27;94366.78;;;3.30;82.18
21828;BME280;11076;47.942;11.804;2023-03-16T18:15:32;94362.19;;;3.24;82.74
21828;BME280;11076;47.942;11.804;2023-03-16T18:20:35;94361.47;;;3.07;83.52
21828;BME280;11076;47.942;11.804;2023-03-16T18:25:38;94364.84;;;2.93;83.99
21828;BME280;11076;47.942;11.804;2023-03-16T18:30:43;94379.41;;;3.12;85.26
21828;BME280;11076;47.942;11.804;2023-03-16T18:35:46;94372.72;;;3.01;84.93
21828;BME280;11076;47.942;11.804;2023-03-16T18:40:49;94363.88;;;2.86;85.86
21828;BME280;11076;47.942;11.804;2023-03-16T18:45:51;94364.75;;;2.70;85.46
21828;BME280;11076;47.942;11.804;2023-03-16T18:50:55;94372.44;;;2.88;85.51
21828;BME280;11076;47.942;11.804;2023-03-16T18:55:58;94360.69;;;2.90;84.92
21828;BME280;11076;47.942;11.804;2023-03-16T19:01:00;94364.03;;;2.84;85.24
21828;BME280;11076;47.942;11.804;2023-03-16T19:06:03;94354.44;;;2.91;85.04
21828;BME280;11076;47.942;11.804;2023-03-16T19:11:06;94348.59;;;3.04;84.63
21828;BME280;11076;47.942;11.804;2023-03-16T19:16:17;94347.03;;;3.18;83.80
21828;BME280;11076;47.942;11.804;2023-03-16T19:21:20;94353.16;;;3.10;83.61
21828;BME280;11076;47.942;11.804;2023-03-16T19:26:24;94348.72;;;3.11;83.49
21828;BME280;11076;47.942;11.804;2023-03-16T19:31:28;94358.66;;;3.09;83.87
21828;BME280;11076;47.942;11.804;2023-03-16T19:36:31;94350.91;;;3.07;83.52
21828;BME280;11076;47.942;11.804;2023-03-16T19:41:36;94350.91;;;3.07;83.93
21828;BME280;11076;47.942;11.804;2023-03-16T19:46:39;94351.53;;;3.09;83.52
21828;BME280;11076;47.942;11.804;2023-03-16T19:51:41;94354.53;;;3.06;83.14
21828;BME280;11076;47.942;11.804;2023-03-16T19:56:44;94349.47;;;2.96;83.66
21828;BME280;11076;47.942;11.804;2023-03-16T20:01:46;94350.13;;;2.90;83.89
21828;BME280;11076;47.942;11.804;2023-03-16T20:06:49;94338.63;;;2.83;83.84
21828;BME280;11076;47.942;11.804;2023-03-16T20:11:52;94339.97;;;2.79;83.88
21828;BME280;11076;47.942;11.804;2023-03-16T20:16:55;94338.69;;;2.75;84.36
21828;BME280;11076;47.942;11.804;2023-03-16T20:21:58;94340.34;;;2.68;84.93
21828;BME280;11076;47.942;11.804;2023-03-16T20:27:00;94337.44;;;2.54;85.76
21828;BME280;11076;47.942;11.804;2023-03-16T20:32:16;94337.47;;;2.46;86.41
21828;BME280;11076;47.942;11.804;2023-03-16T20:37:23;94331.25;;;2.31;87.80
21828;BME280;11076;47.942;11.804;2023-03-16T20:42:31;94341.50;;;2.17;88.14
21828;BME280;11076;47.942;11.804;2023-03-16T20:47:35;94332.78;;;2.17;88.21
21828;BME280;11076;47.942;11.804;2023-03-16T20:52:37;94322.75;;;2.04;88.80
21828;BME280;11076;47.942;11.804;2023-03-16T20:57:39;94323.22;;;2.08;89.75
21828;BME280;11076;47.942;11.804;2023-03-16T21:02:44;94325.22;;;2.06;89.88
21828;BME280;11076;47.942;11.804;2023-03-16T21:07:49;94322.59;;;1.97;90.28
21828;BME280;11076;47.942;11.804;2023-03-16T21:12:54;94319.13;;;1.89;90.51
21828;BME280;11076;47.942;11.804;2023-03-16T21:18:03;94311.91;;;1.83;90.29
21828;BME280;11076;47.942;11.804;2023-03-16T21:23:12;94316.88;;;1.69;91.41
21828;BME280;11076;47.942;11.804;2023-03-16T21:28:17;94305.34;;;1.54;92.49
21828;BME280;11076;47.942;11.804;2023-03-16T21:33:31;94301.88;;;1.45;92.88
21828;BME280;11076;47.942;11.804;2023-03-16T21:38:34;94305.34;;;1.46;92.93
21828;BME280;11076;47.942;11.804;2023-03-16T21:43:37;94308.94;;;1.53;92.61
21828;BME280;11076;47.942;11.804;2023-03-16T21:48:41;94300.56;;;1.41;93.00
21828;BME280;11076;47.942;11.804;2023-03-16T21:53:45;94304.03;;;1.42;93.74
21828;BME280;11076;47.942;11.804;2023-03-16T21:58:48;94300.41;;;1.34;93.79
21828;BME280;11076;47.942;11.804;2023-03-16T22:03:52;94287.56;;;1.23;94.41
21828;BME280;11076;47.942;11.804;2023-03-16T22:08:57;94289.34;;;1.06;95.72
21828;BME280;11076;47.942;11.804;2023-03-16T22:14:00;94286.72;;;0.90;95.60
21828;BME280;11076;47.942;11.804;2023-03-16T22:19:03;94283.56;;;0.78;97.01
21828;BME280;11076;47.942;11.804;2023-03-16T22:24:13;94283.06;;;0.74;97.23
21828;BME280;11076;47.942;11.804;2023-03-16T22:34:43;94281.91;;;0.77;97.60
21828;BME280;11076;47.942;11.804;2023-03-16T22:39:46;94279.94;;;0.79;97.00
21828;BME280;11076;47.942;11.804;2023-03-16T22:44:49;94278.97;;;0.80;97.69
21828;BME280;11076;47.942;11.804;2023-03-16T22:49:51;94281.91;;;0.77;98.17
21828;BME280;11076;47.942;11.804;2023-03-16T22:54:55;94285.84;;;0.73;98.16
21828;BME280;11076;47.942;11.804;2023-03-16T23:00:00;94276.78;;;0.67;98.09
21828;BME280;11076;47.942;11.804;2023-03-16T23:05:20;94273.34;;;0.67;98.13
21828;BME280;11076;47.942;11.804;2023-03-16T23:10:24;94266.09;;;0.61;100.00
21828;BME280;11076;47.942;11.804;2023-03-16T23:15:29;94264.59;;;0.50;99.36
21828;BME280;11076;47.942;11.804;2023-03-16T23:20:33;94261.91;;;0.42;99.70
21828;BME280;11076;47.942;11.804;2023-03-16T23:25:35;94259.75;;;0.37;99.64
21828;BME280;11076;47.942;11.804;2023-03-16T23:30:38;94260.41;;;0.31;99.27
21828;BME280;11076;47.942;11.804;2023-03-16T23:35:41;94261.72;;;0.35;100.00
21828;BME280;11076;47.942;11.804;2023-03-16T23:40:47;94269.25;;;0.22;100.00
21828;BME280;11076;47.942;11.804;2023-03-16T23:45:50;94265.63;;;0.14;100.00
21828;BME280;11076;47.942;11.804;2023-03-16T23:50:54;94263.72;;;-0.02;100.00
21828;BME280;11076;47.942;11.804;2023-03-16T23:55:57;94259.00;;;0.02;100.00
